Time;durP1;ratioP1;P1;durP2;ratioP2;P2;SDS_P1;SDS_P2;PMS_P1;PMS_P2;Temp;Humidity;BMP_temperature;BMP_pressure;BME280_temperature;BME280_humidity;BME280_pressure;Samples;Min_cycle;Max_cycle;Signal;HPM_P1;HPM_P2
2023/07/13 00:01:32;;;;;;;4.38;2.80;;;;;;;20.20;96.57;93442.03;5087425;28;20047;-72
2023/07/13 00:03:59;;;;;;;4.32;2.90;;;;;;;20.16;96.54;93438.38;5084906;28;20494;-72
2023/07/13 00:06:32;;;;;;;6.20;2.53;;;;;;;20.18;95.83;93435.50;5084081;28;20048;-73
2023/07/13 00:08:59;;;;;;;3.55;2.50;;;;;;;20.07;97.46;93424.31;5087099;28;20131;-73
2023/07/13 00:11:27;;;;;;;4.57;3.05;;;;;;;20.08;96.71;93425.91;5090221;28;20052;-73
2023/07/13 00:13:54;;;;;;;4.50;2.88;;;;;;;20.08;95.28;93426.66;5088632;28;20129;-73
2023/07/13 00:16:21;;;;;;;3.90;2.22;;;;;;;20.03;97.59;93427.47;5090624;28;20455;-73
2023/07/13 00:18:48;;;;;;;4.72;3.10;;;;;;;20.00;95.95;93427.22;5086921;28;20051;-73
2023/07/13 00:21:15;;;;;;;4.40;2.58;;;;;;;19.91;95.67;93413.91;5084405;28;20070;-72
2023/07/13 00:23:43;;;;;;;4.57;2.90;;;;;;;19.88;95.72;93423.03;5090480;28;20040;-72
2023/07/13 00:26:12;;;;;;;4.28;2.92;;;;;;;19.79;95.38;93424.59;5087389;28;20101;-72
2023/07/13 00:28:41;;;;;;;4.35;2.90;;;;;;;19.80;97.03;93427.97;5089373;28;20058;-72
2023/07/13 00:31:09;;;;;;;4.78;3.00;;;;;;;19.69;96.86;93420.16;5087282;28;20417;-73
2023/07/13 00:33:36;;;;;;;7.65;3.25;;;;;;;19.43;98.00;93385.50;5090393;28;20048;-73
2023/07/13 00:36:04;;;;;;;6.32;3.15;;;;;;;19.55;97.94;93412.09;5089999;28;20083;-72
2023/07/13 00:38:31;;;;;;;4.93;2.70;;;;;;;19.57;97.69;93404.78;5074422;28;20053;-73
2023/07/13 00:40:58;;;;;;;4.32;2.95;;;;;;;19.62;97.85;93417.03;5074600;28;20045;-72
2023/07/13 00:43:28;;;;;;;4.82;2.83;;;;;;;19.58;98.46;93416.00;5074666;28;20041;-72
2023/07/13 00:46:25;;;;;;;4.13;2.97;;;;;;;19.55;100.00;93419.91;5074844;28;20056;-73
2023/07/13 00:48:53;;;;;;;6.22;2.42;;;;;;;19.54;100.00;93417.56;5061307;28;20045;-72
2023/07/13 00:51:24;;;;;;;4.60;2.60;;;;;;;19.55;100.00;93416.50;5074117;28;20094;-72
2023/07/13 00:53:54;;;;;;;6.63;3.13;;;;;;;19.50;100.00;93414.69;5073963;28;20053;-72
2023/07/13 00:56:20;;;;;;;4.05;2.58;;;;;;;19.40;100.00;93402.44;5073955;28;20552;-72
2023/07/13 00:58:47;;;;;;;5.88;3.03;;;;;;;19.45;100.00;93412.84;5074270;28;20105;-72
2023/07/13 01:01:14;;;;;;;4.47;3.30;;;;;;;19.40;100.00;93412.06;5074320;28;20101;-72
2023/07/13 01:03:42;;;;;;;5.70;3.10;;;;;;;19.39;100.00;93410.53;5074142;28;20090;-73
2023/07/13 01:06:09;;;;;;;5.13;3.22;;;;;;;19.41;100.00;93417.03;5073461;28;20098;-72
2023/07/13 01:08:36;;;;;;;4.78;2.70;;;;;;;19.41;100.00;93419.63;5074036;28;20049;-72
2023/07/13 01:11:02;;;;;;;5.43;3.35;;;;;;;19.41;100.00;93414.44;5073769;28;20049;-72
2023/07/13 01:13:29;;;;;;;8.35;3.83;;;;;;;19.34;100.00;93414.69;5074057;28;20053;-73
2023/07/13 01:15:59;;;;;;;6.95;3.50;;;;;;;19.30;100.00;93416.22;5073599;28;20045;-73
2023/07/13 01:18:28;;;;;;;4.53;3.13;;;;;;;19.29;100.00;93417.28;5074366;28;20048;-73
2023/07/13 01:20:57;;;;;;;4.70;3.10;;;;;;;19.25;100.00;93416.22;5073651;28;20052;-72
2023/07/13 01:23:25;;;;;;;4.85;2.92;;;;;;;19.29;100.00;93421.69;5073867;28;20045;-73
2023/07/13 01:25:52;;;;;;;8.25;3.38;;;;;;;19.27;100.00;93421.97;5073868;28;20127;-73
2023/07/13 01:28:19;;;;;;;4.93;3.30;;;;;;;19.27;100.00;93408.94;5073476;28;20041;-73
2023/07/13 01:30:47;;;;;;;4.45;2.92;;;;;;;19.15;100.00;93388.34;5073848;28;20441;-73
2023/07/13 01:33:16;;;;;;;5.75;3.10;;;;;;;19.24;100.00;93401.63;5073778;28;20060;-73
2023/07/13 01:35:43;;;;;;;6.20;3.45;;;;;;;19.25;100.00;93405.81;5073765;28;20423;-73
2023/07/13 01:38:13;;;;;;;4.63;2.95;;;;;;;19.26;100.00;93410.00;5083672;28;20100;-72
2023/07/13 01:40:39;;;;;;;5.55;3.28;;;;;;;19.17;100.00;93395.91;5088102;28;20794;-72
2023/07/13 01:43:06;;;;;;;6.30;3.10;;;;;;;19.10;100.00;93398.75;5088783;28;20428;-72
2023/07/13 01:45:33;;;;;;;5.43;3.20;;;;;;;19.06;100.00;93400.31;5085862;28;20052;-72
2023/07/13 01:48:01;;;;;;;5.30;3.53;;;;;;;19.02;100.00;93396.66;5087824;28;20065;-72
2023/07/13 01:50:27;;;;;;;5.18;3.20;;;;;;;19.03;100.00;93395.59;5086826;28;20036;-73
2023/07/13 01:52:54;;;;;;;5.78;3.58;;;;;;;18.99;100.00;93390.13;5084566;28;20061;-73
2023/07/13 01:55:23;;;;;;;6.03;3.20;;;;;;;18.96;100.00;93398.44;5088638;28;20044;-72
2023/07/13 01:57:49;;;;;;;4.93;3.40;;;;;;;18.79;100.00;93391.63;5087191;28;20113;-73
2023/07/13 02:00:17;;;;;;;5.63;3.45;;;;;;;18.82;100.00;93398.94;5085125;28;20044;-73
2023/07/13 02:02:44;;;;;;;5.25;3.20;;;;;;;18.74;100.00;93401.25;5087361;28;20048;-72
2023/07/13 02:05:11;;;;;;;5.88;3.63;;;;;;;18.81;100.00;93404.41;5088049;28;20040;-72
2023/07/13 02:07:38;;;;;;;5.78;3.65;;;;;;;18.77;100.00;93401.53;5087729;28;20140;-72
2023/07/13 02:10:06;;;;;;;7.35;3.20;;;;;;;18.84;100.00;93409.06;5086716;28;20048;-72
2023/07/13 02:12:34;;;;;;;7.10;3.22;;;;;;;18.80;100.00;93402.84;5088368;28;20048;-73
2023/07/13 02:15:01;;;;;;;6.80;3.13;;;;;;;18.79;100.00;93398.69;5086879;28;20052;-73
2023/07/13 02:17:28;;;;;;;5.22;3.70;;;;;;;18.69;100.00;93389.78;5084735;28;20048;-73
2023/07/13 02:19:55;;;;;;;4.75;3.25;;;;;;;18.68;100.00;93382.22;5087188;28;20047;-73
2023/07/13 02:22:22;;;;;;;4.85;3.13;;;;;;;18.79;100.00;93407.25;5083581;28;20149;-72
2023/07/13 02:24:49;;;;;;;5.53;3.15;;;;;;;18.78;100.00;93405.69;5082436;28;20440;-72
2023/07/13 02:27:16;;;;;;;6.80;3.22;;;;;;;18.72;100.00;93406.72;5087847;28;20052;-72
2023/07/13 02:29:44;;;;;;;4.40;3.00;;;;;;;18.67;100.00;93410.09;5087814;28;21168;-72
2023/07/13 02:32:11;;;;;;;5.97;3.35;;;;;;;18.61;100.00;93402.50;5084961;28;20493;-72
2023/07/13 02:34:38;;;;;;;5.65;3.20;;;;;;;18.61;100.00;93403.28;5082390;28;20083;-73
2023/07/13 02:37:05;;;;;;;5.93;3.25;;;;;;;18.48;100.00;93386.34;5087481;28;20497;-72
2023/07/13 02:39:32;;;;;;;5.50;3.15;;;;;;;18.58;100.00;93397.81;5085590;28;20044;-73
2023/07/13 02:41:59;;;;;;;6.75;4.13;;;;;;;18.40;100.00;93372.00;5085011;28;20501;-73
2023/07/13 02:44:26;;;;;;;5.35;3.83;;;;;;;18.58;100.00;93408.22;5086408;28;20048;-73
2023/07/13 02:46:54;;;;;;;7.47;4.00;;;;;;;18.56;100.00;93409.25;5087519;28;20056;-73
2023/07/13 02:49:21;;;;;;;6.65;3.33;;;;;;;18.52;100.00;93400.38;5087185;28;20051;-73
2023/07/13 02:51:48;;;;;;;5.10;3.28;;;;;;;18.50;100.00;93412.88;5084605;28;20040;-72
2023/07/13 02:54:14;;;;;;;5.68;4.10;;;;;;;18.46;100.00;93398.03;5087300;28;20452;-72
2023/07/13 02:56:43;;;;;;;6.03;3.53;;;;;;;18.50;100.00;93404.28;5086719;28;20040;-72
2023/07/13 02:59:10;;;;;;;6.65;3.70;;;;;;;18.42;100.00;93395.13;5085885;28;20044;-72
2023/07/13 03:01:36;;;;;;;5.68;3.63;;;;;;;18.45;100.00;93407.66;5087290;28;20043;-73
2023/07/13 03:04:05;;;;;;;4.80;3.00;;;;;;;18.46;100.00;93411.03;5083071;28;20052;-72
2023/07/13 03:06:32;;;;;;;5.63;3.60;;;;;;;18.36;100.00;93411.75;5084537;28;20421;-72
2023/07/13 03:08:59;;;;;;;6.15;3.30;;;;;;;18.35;100.00;93407.59;5084051;28;20546;-72
2023/07/13 03:11:27;;;;;;;7.78;3.65;;;;;;;18.31;100.00;93422.94;5084878;28;20501;-72
2023/07/13 03:13:54;;;;;;;5.75;3.45;;;;;;;18.29;100.00;93427.59;5086338;28;20543;-72
2023/07/13 03:16:21;;;;;;;5.43;3.97;;;;;;;18.19;100.00;93406.75;5085381;28;20048;-73
2023/07/13 03:18:48;;;;;;;9.98;4.18;;;;;;;18.22;100.00;93416.63;5084985;28;20040;-72
2023/07/13 03:21:17;;;;;;;6.05;3.88;;;;;;;18.24;100.00;93412.75;5081977;28;20144;-72
2023/07/13 03:23:44;;;;;;;8.40;3.85;;;;;;;18.26;100.00;93420.28;5086232;28;20051;-72
2023/07/13 03:26:12;;;;;;;10.77;4.25;;;;;;;18.27;100.00;93419.25;5086240;28;20501;-72
2023/07/13 03:28:40;;;;;;;8.88;4.47;;;;;;;18.22;100.00;93419.22;5085776;28;20394;-72
2023/07/13 03:31:09;;;;;;;5.72;3.78;;;;;;;18.24;100.00;93417.19;5083265;28;20105;-72
2023/07/13 03:33:36;;;;;;;6.15;3.60;;;;;;;18.23;100.00;93415.63;5086906;28;20093;-72
2023/07/13 03:36:03;;;;;;;7.20;4.55;;;;;;;18.25;100.00;93421.34;5084438;28;20531;-72
2023/07/13 03:38:31;;;;;;;8.50;3.53;;;;;;;18.22;100.00;93429.63;5085528;28;20040;-72
2023/07/13 03:40:59;;;;;;;8.20;4.30;;;;;;;18.26;100.00;93430.69;5083082;28;20048;-72
2023/07/13 03:43:25;;;;;;;9.82;4.22;;;;;;;18.17;100.00;93433.00;5084957;28;20048;-73
2023/07/13 03:45:52;;;;;;;6.57;4.88;;;;;;;17.91;100.00;93427.59;5088485;28;20044;-72
2023/07/13 03:48:19;;;;;;;5.57;3.67;;;;;;;17.90;100.00;93426.81;5091138;28;20052;-73
2023/07/13 03:50:49;;;;;;;7.13;4.22;;;;;;;17.94;100.00;93419.31;5085560;28;20048;-72
2023/07/13 03:53:15;;;;;;;10.70;4.68;;;;;;;18.09;100.00;93425.69;5086958;28;20097;-72
2023/07/13 03:55:44;;;;;;;9.43;5.03;;;;;;;18.23;100.00;93431.22;5086314;28;20655;-73
2023/07/13 03:58:32;;;;;;;12.43;5.60;;;;;;;18.34;100.00;93424.25;5087940;28;20083;-72
2023/07/13 04:01:00;;;;;;;8.75;5.03;;;;;;;18.42;100.00;93424.53;5088996;28;20132;-72
2023/07/13 04:03:28;;;;;;;6.50;4.45;;;;;;;18.52;100.00;93420.44;5088377;28;20423;-72
2023/07/13 04:05:59;;;;;;;12.82;5.53;;;;;;;18.59;100.00;93423.56;5088672;28;20864;-73
2023/07/13 04:08:27;;;;;;;10.85;4.85;;;;;;;18.70;100.00;93426.97;5090170;28;20047;-72
2023/07/13 04:10:55;;;;;;;10.07;4.38;;;;;;;18.80;100.00;93429.63;5085786;28;21379;-72
2023/07/13 04:13:22;;;;;;;7.95;4.47;;;;;;;18.87;100.00;93424.19;5090521;28;20052;-72
2023/07/13 04:15:49;;;;;;;8.15;4.20;;;;;;;18.95;100.00;93420.31;5086448;28;20040;-72
2023/07/13 04:18:16;;;;;;;11.05;4.75;;;;;;;19.00;100.00;93417.72;5086512;28;20447;-72
2023/07/13 04:20:42;;;;;;;12.85;3.97;;;;;;;18.96;100.00;93399.22;5088532;28;20669;-72
2023/07/13 04:23:09;;;;;;;8.18;4.32;;;;;;;19.13;100.00;93413.09;5089052;28;20048;-73
2023/07/13 04:25:36;;;;;;;8.85;4.50;;;;;;;19.17;100.00;93417.50;5088211;28;20117;-72
2023/07/13 04:28:04;;;;;;;8.88;4.50;;;;;;;19.25;100.00;93420.66;5092217;28;20562;-73
2023/07/13 04:30:31;;;;;;;10.32;4.57;;;;;;;19.26;100.00;93414.41;5091913;28;20085;-73
2023/07/13 04:32:58;;;;;;;7.57;4.68;;;;;;;19.32;100.00;93416.78;5085592;28;20098;-72
2023/07/13 04:35:25;;;;;;;13.13;5.90;;;;;;;19.20;100.00;93414.41;5091727;28;20152;-73
2023/07/13 04:37:51;;;;;;;9.43;6.05;;;;;;;19.21;100.00;93421.16;5086472;28;20093;-72
2023/07/13 04:40:19;;;;;;;11.85;5.38;;;;;;;19.18;100.00;93424.31;5088205;28;20070;-73
2023/07/13 04:42:46;;;;;;;8.30;4.65;;;;;;;19.10;100.00;93432.59;5094288;28;20569;-73
2023/07/13 04:45:15;;;;;;;9.20;4.75;;;;;;;19.00;100.00;93424.72;5092426;28;20443;-73
2023/07/13 04:47:42;;;;;;;10.63;6.22;;;;;;;19.02;100.00;93436.47;5095821;28;20103;-72
2023/07/13 04:50:11;;;;;;;10.20;5.50;;;;;;;18.96;100.00;93429.69;5083869;28;20044;-72
2023/07/13 04:52:38;;;;;;;12.25;5.75;;;;;;;19.08;100.00;93439.91;5093629;28;20036;-72
2023/07/13 04:55:05;;;;;;;12.13;5.80;;;;;;;19.12;100.00;93442.75;5093762;28;20040;-73
2023/07/13 04:57:32;;;;;;;10.88;4.97;;;;;;;19.25;100.00;93439.66;5087574;28;20574;-72
2023/07/13 05:00:00;;;;;;;12.27;5.32;;;;;;;19.28;100.00;93441.75;5095032;28;20048;-72
2023/07/13 05:02:31;;;;;;;9.73;5.63;;;;;;;19.29;100.00;93442.53;5092475;28;22282;-72
2023/07/13 05:04:57;;;;;;;9.57;5.40;;;;;;;19.42;100.00;93451.66;5091530;28;20105;-72
2023/07/13 05:07:24;;;;;;;13.15;6.68;;;;;;;19.53;100.00;93455.84;5096878;28;20052;-73
2023/07/13 05:09:51;;;;;;;11.73;6.43;;;;;;;19.66;100.00;93451.94;5093821;28;20121;-72
2023/07/13 05:12:18;;;;;;;15.13;5.28;;;;;;;19.81;100.00;93448.56;5093631;28;20440;-72
2023/07/13 05:14:45;;;;;;;13.43;6.00;;;;;;;19.84;100.00;93452.47;5086063;28;20105;-72
2023/07/13 05:17:11;;;;;;;21.60;7.10;;;;;;;20.02;100.00;93453.78;5094402;28;20097;-72
2023/07/13 05:19:39;;;;;;;16.70;7.40;;;;;;;20.20;100.00;93455.06;5093252;27;20086;-72
2023/07/13 05:22:06;;;;;;;19.58;6.97;;;;;;;20.41;100.00;93457.66;5088136;28;20086;-72
2023/07/13 05:24:33;;;;;;;13.60;6.68;;;;;;;20.58;100.00;93457.31;5091753;28;20553;-72
2023/07/13 05:27:00;;;;;;;15.70;5.68;;;;;;;20.78;100.00;93466.13;5094398;28;20076;-72
2023/07/13 05:29:27;;;;;;;16.98;6.57;;;;;;;20.95;100.00;93455.38;5090529;28;20048;-72
2023/07/13 05:31:54;;;;;;;16.02;7.55;;;;;;;21.17;100.00;93465.47;5093928;28;20093;-72
2023/07/13 05:34:21;;;;;;;15.45;6.40;;;;;;;21.38;99.95;93461.97;5093145;28;20538;-73
2023/07/13 05:36:49;;;;;;;16.67;7.05;;;;;;;21.54;99.57;93460.00;5088561;28;20097;-73
2023/07/13 05:39:16;;;;;;;14.90;6.38;;;;;;;21.76;98.41;93463.00;5090619;28;20036;-72
2023/07/13 05:41:43;;;;;;;13.30;5.70;;;;;;;21.89;98.01;93479.91;5092780;28;20044;-72
2023/07/13 05:44:09;;;;;;;20.73;7.55;;;;;;;22.09;96.80;93474.78;5087962;28;20552;-73
2023/07/13 05:46:36;;;;;;;15.23;6.13;;;;;;;22.27;96.96;93484.56;5095738;28;20407;-73
2023/07/13 05:49:04;;;;;;;11.07;4.85;;;;;;;22.39;91.79;93486.00;5088726;28;20048;-73
2023/07/13 05:51:30;;;;;;;12.27;6.05;;;;;;;22.45;92.38;93471.06;5093525;28;20411;-73
2023/07/13 05:53:58;;;;;;;10.30;5.32;;;;;;;22.69;90.87;93482.31;5093982;28;20464;-73
2023/07/13 05:56:26;;;;;;;11.75;5.28;;;;;;;22.75;89.55;93485.69;5093575;28;20570;-73
2023/07/13 05:58:53;;;;;;;19.55;6.55;;;;;;;23.01;88.34;93479.38;5088424;28;20062;-73
2023/07/13 06:01:20;;;;;;;18.67;7.25;;;;;;;23.11;86.88;93462.72;5093257;28;20044;-73
2023/07/13 06:03:47;;;;;;;20.65;6.95;;;;;;;23.26;84.59;93462.53;5093618;28;20560;-73
2023/07/13 06:06:14;;;;;;;14.15;5.80;;;;;;;23.51;84.52;93454.63;5093977;28;20100;-73
2023/07/13 06:08:41;;;;;;;17.55;6.75;;;;;;;23.76;85.90;93456.84;5091689;28;20109;-73
2023/07/13 06:11:14;;;;;;;17.15;7.30;;;;;;;23.94;86.46;93464.97;5093118;28;20075;-73
2023/07/13 06:13:41;;;;;;;14.75;6.18;;;;;;;24.33;84.49;93459.63;5087136;28;20047;-73
2023/07/13 06:16:08;;;;;;;17.30;5.82;;;;;;;24.70;82.67;93463.16;5090990;28;20075;-73
2023/07/13 06:18:37;;;;;;;16.05;6.07;;;;;;;25.13;81.21;93467.31;5095434;28;20370;-73
2023/07/13 06:21:08;;;;;;;15.32;6.68;;;;;;;25.57;79.62;93464.31;5092539;28;20052;-73
2023/07/13 06:23:35;;;;;;;12.68;5.68;;;;;;;25.99;76.96;93459.66;5087454;28;20060;-73
2023/07/13 06:26:01;;;;;;;19.48;5.75;;;;;;;26.39;75.27;93458.94;5093421;28;20051;-73
2023/07/13 06:28:31;;;;;;;15.45;5.05;;;;;;;26.62;73.79;93448.31;5087507;28;20501;-73
2023/07/13 06:30:58;;;;;;;11.20;6.57;;;;;;;27.07;70.90;93463.22;5090677;28;20051;-73
2023/07/13 06:33:25;;;;;;;11.82;6.00;;;;;;;27.25;69.63;93457.94;5093235;28;20101;-73
2023/07/13 06:35:51;;;;;;;19.88;7.05;;;;;;;27.61;69.72;93456.13;5090399;28;20048;-73
2023/07/13 06:38:18;;;;;;;17.17;5.10;;;;;;;27.82;67.72;93447.59;5089011;28;20098;-73
2023/07/13 06:40:45;;;;;;;15.48;6.50;;;;;;;28.14;67.67;93446.25;5093283;28;20497;-73
2023/07/13 06:43:11;;;;;;;15.13;6.28;;;;;;;28.63;65.26;93462.91;5091338;28;20044;-73
2023/07/13 06:45:47;;;;;;;17.45;6.45;;;;;;;28.92;63.48;93458.72;5086755;28;20048;-73
2023/07/13 06:48:14;;;;;;;11.65;4.93;;;;;;;29.21;64.94;93450.00;5088510;28;20048;-73
2023/07/13 06:50:41;;;;;;;12.90;5.53;;;;;;;29.25;62.19;93454.66;5086937;28;20043;-73
2023/07/13 06:53:08;;;;;;;17.77;6.47;;;;;;;29.56;64.58;93454.28;5091092;28;20065;-74
2023/07/13 06:55:35;;;;;;;12.30;5.53;;;;;;;29.49;64.32;93453.25;5091646;28;20513;-73
2023/07/13 06:58:02;;;;;;;12.13;6.72;;;;;;;29.73;61.81;93448.09;5096993;28;20056;-73
2023/07/13 07:00:28;;;;;;;15.13;6.97;;;;;;;30.01;63.42;93449.38;5090451;28;20101;-74
2023/07/13 07:02:57;;;;;;;16.90;5.25;;;;;;;30.32;60.60;93460.63;5087835;28;20048;-74
2023/07/13 07:05:23;;;;;;;8.45;5.05;;;;;;;30.48;58.44;93460.75;5086262;28;20052;-74
2023/07/13 07:07:50;;;;;;;17.83;6.18;;;;;;;30.71;61.06;93457.69;5087324;28;20443;-73
2023/07/13 07:10:17;;;;;;;14.25;6.20;;;;;;;30.86;59.82;93453.63;5096405;28;20109;-73
2023/07/13 07:12:44;;;;;;;13.60;5.50;;;;;;;30.86;59.35;93448.31;5087455;28;20044;-74
2023/07/13 07:15:11;;;;;;;16.35;6.20;;;;;;;31.24;59.47;93451.69;5092780;28;20039;-74
2023/07/13 07:17:38;;;;;;;15.35;6.30;;;;;;;31.29;59.10;93454.88;5105395;28;20043;-74
2023/07/13 07:20:07;;;;;;;11.48;5.97;;;;;;;31.64;59.09;93458.09;5105701;28;20443;-74
2023/07/13 07:22:34;;;;;;;14.52;5.95;;;;;;;31.82;56.24;93461.25;5087487;28;20049;-74
2023/07/13 07:25:01;;;;;;;16.80;6.47;;;;;;;31.80;57.02;93458.16;5106127;28;20093;-74
2023/07/13 07:27:27;;;;;;;15.68;5.38;;;;;;;32.07;55.97;93458.50;5096458;28;20097;-74
2023/07/13 07:29:54;;;;;;;16.38;5.85;;;;;;;32.38;55.71;93454.31;5092036;28;20051;-74
2023/07/13 07:32:21;;;;;;;15.02;6.25;;;;;;;32.86;56.14;93451.66;5087545;28;20501;-74
2023/07/13 07:34:48;;;;;;;12.68;5.93;;;;;;;33.22;51.34;93458.91;5087822;28;20093;-74
2023/07/13 07:37:16;;;;;;;6.28;3.10;;;;;;;33.50;48.25;93448.06;5088882;28;20081;-74
2023/07/13 07:39:43;;;;;;;7.03;3.65;;;;;;;33.71;46.60;93447.75;5092089;28;20043;-74
2023/07/13 07:42:10;;;;;;;9.77;3.40;;;;;;;33.98;46.20;93450.50;5083102;28;20043;-74
2023/07/13 07:44:37;;;;;;;5.00;3.25;;;;;;;34.06;42.47;93443.44;5084450;28;20044;-74
2023/07/13 07:47:04;;;;;;;4.57;3.05;;;;;;;33.93;44.07;93437.47;5083905;28;20052;-74
2023/07/13 07:49:31;;;;;;;4.82;2.80;;;;;;;34.07;43.53;93433.56;5090736;28;20402;-74
2023/07/13 07:51:58;;;;;;;9.40;3.58;;;;;;;34.32;43.75;93441.22;5096636;28;20093;-74
2023/07/13 07:54:26;;;;;;;7.15;3.00;;;;;;;34.42;42.93;93437.94;5092530;28;20101;-74
2023/07/13 07:56:53;;;;;;;5.97;3.00;;;;;;;34.27;42.14;93428.94;5094763;28;20051;-74
2023/07/13 07:59:20;;;;;;;5.55;2.97;;;;;;;34.47;41.78;93436.91;5097104;28;20489;-74
2023/07/13 08:01:47;;;;;;;5.50;3.35;;;;;;;34.54;42.30;93437.00;5084877;28;20059;-74
2023/07/13 08:04:14;;;;;;;4.82;2.92;;;;;;;34.68;41.28;93431.13;5105844;28;20092;-74
2023/07/13 08:06:41;;;;;;;5.43;3.00;;;;;;;34.71;42.83;93427.75;5105663;28;20055;-74
2023/07/13 08:09:08;;;;;;;7.57;2.97;;;;;;;34.69;40.81;93427.34;5093187;28;20456;-74
2023/07/13 08:11:37;;;;;;;7.25;2.97;;;;;;;34.86;41.16;93426.06;5088079;28;20094;-74
2023/07/13 08:14:03;;;;;;;5.18;2.90;;;;;;;35.00;40.57;93419.38;5088229;28;20044;-74
2023/07/13 08:16:32;;;;;;;4.78;2.88;;;;;;;34.92;39.06;93424.63;5091181;28;20171;-74
2023/07/13 08:18:59;;;;;;;4.38;3.05;;;;;;;35.00;39.48;93414.81;5097749;28;20083;-75
2023/07/13 08:21:26;;;;;;;4.68;2.95;;;;;;;35.17;39.20;93405.53;5092044;28;20051;-74
2023/07/13 08:23:53;;;;;;;5.32;3.15;;;;;;;35.30;38.11;93413.28;5098907;28;20047;-74
2023/07/13 08:26:19;;;;;;;4.97;2.88;;;;;;;35.42;38.25;93406.97;5091117;28;20529;-74
2023/07/13 08:28:48;;;;;;;4.82;2.97;;;;;;;35.51;38.38;93409.34;5086157;28;20346;-74
2023/07/13 08:31:14;;;;;;;4.13;2.42;;;;;;;35.65;38.23;93411.44;5093861;28;20044;-74
2023/07/13 08:33:41;;;;;;;4.60;2.22;;;;;;;35.64;36.53;93412.56;5094682;28;20044;-74
2023/07/13 08:36:08;;;;;;;5.10;2.58;;;;;;;35.55;36.11;93397.56;5090511;28;20098;-74
2023/07/13 08:38:35;;;;;;;4.75;2.50;;;;;;;35.68;36.75;93408.78;5090113;28;20048;-74
2023/07/13 08:41:10;;;;;;;6.10;2.55;;;;;;;35.69;36.10;93404.22;5093734;28;20101;-74
2023/07/13 08:43:38;;;;;;;4.18;2.35;;;;;;;35.69;36.54;93391.63;5089477;28;20443;-74
2023/07/13 08:46:13;;;;;;;5.00;2.78;;;;;;;35.93;37.36;93392.25;5091604;28;20104;-74
2023/07/13 08:48:42;;;;;;;;;;;;;;;36.04;37.02;93404.97;5090632;28;20098;-74
2023/07/13 08:51:21;;;;;;;4.35;2.70;;;;;;;36.01;35.86;93403.00;5088781;28;19920;-74
2023/07/13 08:53:50;;;;;;;6.22;2.95;;;;;;;35.82;35.07;93399.41;5089665;28;20048;-74
2023/07/13 08:56:20;;;;;;;4.25;2.22;;;;;;;35.86;35.90;93405.53;5087769;28;20048;-74
2023/07/13 08:58:50;;;;;;;5.18;2.97;;;;;;;35.95;35.47;93410.56;5094474;28;20047;-74
2023/07/13 09:01:29;;;;;;;8.30;2.80;;;;;;;35.93;34.98;93410.19;5085958;28;20601;-74
2023/07/13 09:04:04;;;;;;;5.35;2.70;;;;;;;36.12;34.66;93417.25;5092789;28;20129;-74
2023/07/13 09:06:41;;;;;;;8.93;2.47;;;;;;;36.17;34.61;93424.16;5091240;28;21345;-74
2023/07/13 09:09:17;;;;;;;5.32;2.50;;;;;;;36.26;34.09;93430.00;5090339;28;20084;-74
2023/07/13 09:11:50;;;;;;;5.80;2.58;;;;;;;36.34;34.29;93434.28;5093971;28;20132;-74
2023/07/13 09:14:35;;;;;;;4.82;2.47;;;;;;;36.43;33.92;93433.97;5090916;28;20125;-74
2023/07/13 09:17:05;;;;;;;3.63;2.13;;;;;;;36.64;33.66;93420.00;5093495;28;20043;-74
2023/07/13 09:19:35;;;;;;;5.20;2.75;;;;;;;36.76;34.48;93418.94;5091343;28;20055;-74
2023/07/13 09:22:04;;;;;;;12.93;3.10;;;;;;;36.97;33.38;93416.75;5090782;28;20139;-75
2023/07/13 09:24:38;;;;;;;5.57;2.70;;;;;;;37.17;32.96;93426.06;5091189;28;20074;-74
2023/07/13 09:27:17;;;;;;;4.95;2.50;;;;;;;37.29;33.70;93422.31;5087689;28;20055;-74
2023/07/13 09:29:50;;;;;;;3.85;2.25;;;;;;;37.60;32.50;93432.00;5088997;28;20044;-74
2023/07/13 09:32:24;;;;;;;4.15;2.63;;;;;;;37.73;31.35;93438.56;5089537;28;20056;-75
2023/07/13 09:34:52;;;;;;;4.90;2.63;;;;;;;38.07;32.50;93443.66;5091599;28;20055;-74
2023/07/13 09:37:21;;;;;;;3.40;2.20;;;;;;;38.14;31.40;93437.53;5088822;28;20050;-75
2023/07/13 09:39:50;;;;;;;3.70;2.28;;;;;;;38.32;32.47;93434.84;5093672;28;20505;-75
2023/07/13 09:42:18;;;;;;;4.20;2.47;;;;;;;38.34;32.10;93434.47;5089242;28;20052;-75
2023/07/13 09:44:53;;;;;;;4.00;2.83;;;;;;;38.45;31.58;93437.91;5091423;28;20083;-75
2023/07/13 09:47:24;;;;;;;6.05;2.55;;;;;;;38.47;30.33;93426.81;5087287;28;20063;-75
2023/07/13 09:49:56;;;;;;;4.10;2.40;;;;;;;38.58;31.82;93419.53;5093691;28;20048;-75
2023/07/13 09:52:23;;;;;;;4.07;2.47;;;;;;;38.78;32.01;93418.38;5091772;28;20040;-75
2023/07/13 09:54:51;;;;;;;4.88;2.55;;;;;;;38.84;29.39;93412.22;5093993;28;20128;-75
2023/07/13 09:57:20;;;;;;;4.97;2.53;;;;;;;39.08;32.02;93419.88;5087656;28;20040;-75
2023/07/13 09:59:49;;;;;;;6.18;2.53;;;;;;;39.26;30.17;93412.53;5091939;28;20079;-75
2023/07/13 10:02:29;;;;;;;5.10;2.50;;;;;;;39.21;27.61;93412.16;5093092;28;20128;-75
2023/07/13 10:05:00;;;;;;;4.20;2.60;;;;;;;39.33;29.48;93403.66;5089630;28;20058;-75
2023/07/13 10:07:27;;;;;;;5.35;2.63;;;;;;;39.53;29.51;93401.31;5092079;28;20556;-74
2023/07/13 10:09:55;;;;;;;3.58;2.33;;;;;;;39.60;29.67;93389.00;5089510;28;20101;-74
2023/07/13 10:12:23;;;;;;;6.70;2.97;;;;;;;39.62;29.59;93383.97;5090016;28;20044;-74
2023/07/13 10:14:54;;;;;;;3.60;2.30;;;;;;;39.69;30.54;93390.09;5093599;28;20079;-75
2023/07/13 10:17:33;;;;;;;5.55;2.58;;;;;;;39.80;28.97;93383.88;5086798;28;20040;-75
2023/07/13 10:20:04;;;;;;;3.63;1.70;;;;;;;39.95;28.83;93385.34;5089814;28;20083;-75
2023/07/13 10:22:40;;;;;;;3.90;2.20;;;;;;;39.88;28.30;93384.59;5089434;28;20066;-75
2023/07/13 10:25:17;;;;;;;4.25;2.53;;;;;;;39.46;27.10;93382.50;5083511;28;20067;-75
2023/07/13 10:27:44;;;;;;;3.83;2.70;;;;;;;39.63;28.44;93385.50;5089130;28;20036;-75
2023/07/13 10:30:16;;;;;;;5.63;2.60;;;;;;;39.72;29.82;93383.16;5090978;28;20079;-75
2023/07/13 10:32:46;;;;;;;5.28;2.70;;;;;;;39.74;29.47;93377.41;5090378;28;20044;-75
2023/07/13 10:35:14;;;;;;;4.10;2.42;;;;;;;39.82;28.32;93385.03;5088140;28;20131;-75
2023/07/13 10:37:46;;;;;;;5.43;2.22;;;;;;;39.91;29.42;93376.50;5085860;28;20085;-75
2023/07/13 10:40:17;;;;;;;5.43;2.35;;;;;;;40.11;29.58;93375.25;5091565;28;20086;-75
2023/07/13 10:42:49;;;;;;;5.13;2.42;;;;;;;40.24;29.31;93370.91;5087623;28;20082;-75
2023/07/13 10:45:17;;;;;;;4.18;2.40;;;;;;;40.37;29.88;93367.72;5082470;28;20044;-75
2023/07/13 10:47:46;;;;;;;4.68;2.58;;;;;;;40.40;29.04;93366.97;5089347;28;20052;-75
2023/07/13 10:50:20;;;;;;;6.95;2.90;;;;;;;40.54;27.57;93361.47;5083411;28;20048;-75
2023/07/13 10:52:50;;;;;;;3.85;2.58;;;;;;;40.45;28.64;93345.75;5085730;28;20048;-75
2023/07/13 10:55:33;;;;;;;6.55;3.20;;;;;;;40.47;28.79;93356.91;5090853;28;20090;-75
2023/07/13 10:58:02;;;;;;;4.72;2.50;;;;;;;40.58;29.23;93354.09;5096372;28;20076;-75
2023/07/13 11:00:32;;;;;;;4.72;2.47;;;;;;;40.62;27.86;93340.59;5097920;28;20412;-75
2023/07/13 11:03:03;;;;;;;4.43;2.50;;;;;;;40.73;27.49;93337.81;5091825;28;20429;-75
2023/07/13 11:05:33;;;;;;;6.68;2.53;;;;;;;40.90;29.00;93338.78;5085188;28;20036;-75
2023/07/13 11:08:14;;;;;;;4.68;2.40;;;;;;;40.84;28.21;93330.41;5079125;28;20125;-75
2023/07/13 11:10:50;;;;;;;5.97;3.00;;;;;;;40.33;27.80;93335.47;5099610;28;20071;-75
2023/07/13 11:14:02;;;;;;;3.20;1.90;;;;;;;40.68;28.06;93330.94;5104874;28;20101;-75
2023/07/13 11:16:44;;;;;;;4.50;2.25;;;;;;;40.82;28.24;93319.28;5032353;28;20041;-75
2023/07/13 11:19:42;;;;;;;5.72;2.92;;;;;;;40.77;27.93;93317.00;5080859;28;20135;-75
2023/07/13 11:22:25;;;;;;;3.60;2.05;;;;;;;40.82;28.09;93310.41;5095521;28;20040;-75
2023/07/13 11:24:57;;;;;;;4.18;2.40;;;;;;;40.96;28.77;93312.97;5106299;28;20500;-75
2023/07/13 11:27:37;;;;;;;5.70;2.97;;;;;;;40.88;28.49;93308.81;5090867;28;20048;-75
2023/07/13 11:30:22;;;;;;;4.88;2.58;;;;;;;40.69;28.70;93307.47;5096360;28;20508;-75
2023/07/13 11:32:52;;;;;;;6.95;2.58;;;;;;;40.57;30.02;93306.81;5095405;28;20051;-75
2023/07/13 11:35:26;;;;;;;4.30;2.47;;;;;;;40.70;29.71;93314.38;5093889;28;20047;-75